Portada
METAR-TAF:

METAR-TAF

Aeroports :

Brize Norton, Anglaterra

latitud: 51-45N, longitud: 001-35W, altitud: 88 m

Observació

L'informe es va fer fa 21 minuts, a les 11:50 UTC
Vent 8 kt del Est/Sud-Est
Temperatura 21°C
Humitat 43%
Pressió 1024 hPa
Visibilitat 10 km o més
sense núvols per sota de 1500 mi sense presència de cumulonimbus.

METAR: EGVN 091150Z 11008KT CAVOK 21/08 Q1024 NOSIG RMK BLU BLU

Hora: 13:11 (12:11 UTC)

Pronòstic

L'informe es va fer fa 1 hora i 43 minuts, a les 10:28 UTC
Pronòstic vàlid del 09 a les 12 UTC al 10 a les 12 UTC
Vent 8 kt del Est/Sud-Est
Visibilitat 10 km o més
sense núvols per sota de 1500 mi sense presència de cumulonimbus.
Evolucionant progressivament
l' 10 a les 00 UTC al 10 a les 03 UTC
Visibilitat: 7000 m
calitja
Probabilitat 40%
l' 10 a les 02 UTC al 10 a les 09 UTC
Visibilitat: 4000 m

TAF: EGVN 091028Z 0912/1012 12008KT CAVOK BECMG 1000/1003 7000 HZ PROB40 1002/1009 4000

Observacions i pronòstics meteorològics de més de 4000 aeroports (METAR i TAF).

Les estacions disponibles són els punts grocs i vermells al mapa.

Posi el ratolí al punt desitjat per veure el nom de l'estació.

Feu clic per veure les observacions i els pronòstics meteorològics.

Per canviar el mapa: feu clic els botons verds amb una creu de color negre per apropar; al botó verd amb un guió per allunyar la imatge; o en les fletxes verdes per a mapes adjacents.


METAR-TAF: